createdAt,value
2023-02-19T00:01:31.357Z,19.24
2023-02-19T00:04:05.272Z,19.25
2023-02-19T00:06:32.593Z,19.24
2023-02-19T00:08:59.301Z,19.22
2023-02-19T00:11:31.320Z,19.19
2023-02-19T00:13:58.520Z,19.19
2023-02-19T00:16:29.462Z,17.74
2023-02-19T00:19:05.519Z,15.73
2023-02-19T00:21:32.186Z,15.97
2023-02-19T00:24:03.744Z,17.51
2023-02-19T00:26:35.144Z,18.18
2023-02-19T00:29:04.059Z,18.39
2023-02-19T00:31:33.799Z,18.50
2023-02-19T00:34:04.930Z,18.55
2023-02-19T00:36:35.068Z,18.62
2023-02-19T00:39:04.579Z,18.62
2023-02-19T00:41:31.237Z,18.57
2023-02-19T00:43:58.538Z,18.73
2023-02-19T00:46:28.561Z,18.76
2023-02-19T00:48:57.520Z,18.77
2023-02-19T00:51:27.483Z,18.81
2023-02-19T00:53:54.207Z,18.84
2023-02-19T00:56:22.233Z,18.88
2023-02-19T00:58:48.891Z,18.90
2023-02-19T01:01:15.743Z,18.95
2023-02-19T01:03:42.458Z,18.96
2023-02-19T01:06:09.969Z,18.96
2023-02-19T01:08:39.376Z,18.95
2023-02-19T01:11:09.198Z,18.96
2023-02-19T01:13:36.176Z,18.98
2023-02-19T01:16:10.639Z,19.01
2023-02-19T01:18:39.541Z,19.04
2023-02-19T01:21:12.850Z,19.07
2023-02-19T01:23:41.814Z,19.06
2023-02-19T01:26:09.761Z,19.07
2023-02-19T01:28:36.474Z,19.10
2023-02-19T01:31:04.177Z,19.11
2023-02-19T01:33:33.610Z,19.14
2023-02-19T01:36:02.680Z,19.16
2023-02-19T01:38:31.501Z,19.16
2023-02-19T01:41:02.799Z,19.19
2023-02-19T01:43:29.490Z,19.15
2023-02-19T01:45:58.430Z,19.21
2023-02-19T01:48:38.393Z,19.16
2023-02-19T01:51:07.271Z,19.22
2023-02-19T01:53:36.670Z,19.23
2023-02-19T01:56:05.548Z,19.20
2023-02-19T01:58:33.861Z,19.21
2023-02-19T02:01:03.512Z,19.23
2023-02-19T02:03:30.289Z,19.26
2023-02-19T02:06:04.871Z,19.26
2023-02-19T02:08:50.500Z,19.20
2023-02-19T02:11:19.464Z,19.25
2023-02-19T02:13:46.241Z,19.24
2023-02-19T02:16:55.090Z,19.27
2023-02-19T02:19:32.393Z,19.29
2023-02-19T02:22:16.464Z,19.28
2023-02-19T02:25:21.530Z,19.26
2023-02-19T02:28:02.353Z,19.29
2023-02-19T02:30:35.816Z,19.30
2023-02-19T02:33:14.596Z,19.33
2023-02-19T02:36:03.901Z,19.34
2023-02-19T02:38:32.030Z,19.31
2023-02-19T02:40:58.844Z,19.33
2023-02-19T02:43:28.158Z,19.34
2023-02-19T02:45:55.032Z,19.35
2023-02-19T02:48:40.212Z,19.27
2023-02-19T02:51:12.420Z,19.35
2023-02-19T02:54:02.980Z,19.36
2023-02-19T02:56:31.783Z,19.32
2023-02-19T02:58:58.865Z,19.37
2023-02-19T03:01:48.553Z,19.37
2023-02-19T03:05:01.348Z,19.34
2023-02-19T03:07:33.045Z,19.36
2023-02-19T03:10:01.877Z,19.34
2023-02-19T03:12:47.092Z,19.32
2023-02-19T03:15:32.160Z,19.33
2023-02-19T03:18:21.996Z,19.32
2023-02-19T03:20:50.924Z,19.32
2023-02-19T03:23:20.293Z,19.31
2023-02-19T03:26:05.235Z,19.36
2023-02-19T03:28:51.852Z,19.34
2023-02-19T03:31:22.601Z,19.35
2023-02-19T03:33:52.196Z,19.37
2023-02-19T03:36:25.701Z,19.33
2023-02-19T03:38:59.235Z,19.37
2023-02-19T03:41:47.124Z,19.37
2023-02-19T03:44:25.554Z,19.36
2023-02-19T03:46:58.426Z,19.36
2023-02-19T03:49:40.258Z,19.34
2023-02-19T03:52:21.616Z,19.38
2023-02-19T03:54:58.291Z,19.35
2023-02-19T03:57:35.482Z,19.34
2023-02-19T04:00:16.275Z,19.33
2023-02-19T04:03:04.682Z,19.36
2023-02-19T04:05:35.906Z,19.34
2023-02-19T04:08:10.334Z,19.37
2023-02-19T04:10:39.102Z,19.34
2023-02-19T04:13:14.616Z,19.33
2023-02-19T04:15:41.781Z,19.34
2023-02-19T04:18:13.092Z,19.36
2023-02-19T04:20:42.971Z,19.33
2023-02-19T04:23:11.762Z,19.34
2023-02-19T04:25:41.573Z,19.33
2023-02-19T04:28:09.634Z,19.37
2023-02-19T04:30:41.117Z,19.35
2023-02-19T04:33:07.769Z,19.36
2023-02-19T04:35:36.640Z,19.23
2023-02-19T04:38:05.514Z,19.31
2023-02-19T04:40:32.120Z,19.32
2023-02-19T04:42:58.860Z,19.29
2023-02-19T04:45:27.653Z,19.34
2023-02-19T04:47:54.289Z,19.24
2023-02-19T04:50:23.414Z,19.35
2023-02-19T04:52:50.107Z,19.35
2023-02-19T04:55:20.011Z,19.33
2023-02-19T04:57:46.688Z,19.36
2023-02-19T05:00:16.162Z,19.35
2023-02-19T05:02:47.963Z,19.38
2023-02-19T05:05:14.696Z,19.36
2023-02-19T05:07:41.411Z,19.35
2023-02-19T05:10:08.268Z,19.37
2023-02-19T05:12:34.879Z,19.37
2023-02-19T05:15:01.550Z,19.36
2023-02-19T05:17:28.159Z,19.37
2023-02-19T05:19:54.853Z,19.33
2023-02-19T05:22:24.673Z,19.32
2023-02-19T05:24:51.338Z,19.33
2023-02-19T05:27:20.230Z,19.33
2023-02-19T05:29:49.020Z,19.35
2023-02-19T05:32:18.764Z,19.35
2023-02-19T05:34:47.539Z,19.35
2023-02-19T05:37:16.343Z,19.32
2023-02-19T05:39:45.271Z,19.36
2023-02-19T05:42:13.857Z,19.33
2023-02-19T05:44:42.740Z,19.35
2023-02-19T05:47:11.729Z,19.32
2023-02-19T05:49:38.406Z,19.32
2023-02-19T05:52:05.230Z,19.24
2023-02-19T05:54:34.052Z,19.31
2023-02-19T05:57:00.699Z,19.32
2023-02-19T05:59:27.548Z,19.32
2023-02-19T06:01:54.743Z,19.32
2023-02-19T06:04:21.439Z,19.20
2023-02-19T06:06:48.125Z,19.31
2023-02-19T06:09:16.930Z,19.35
2023-02-19T06:11:44.151Z,19.35
2023-02-19T06:14:14.802Z,19.33
2023-02-19T06:16:41.591Z,19.37
2023-02-19T06:19:08.442Z,19.38
2023-02-19T06:21:35.114Z,19.35
2023-02-19T06:24:06.485Z,19.37
2023-02-19T06:26:35.695Z,19.39
2023-02-19T06:29:04.523Z,19.39
2023-02-19T06:31:33.392Z,19.35
2023-02-19T06:34:07.356Z,19.42
2023-02-19T06:36:35.268Z,19.41
2023-02-19T06:39:02.354Z,19.40
2023-02-19T06:41:29.049Z,19.41
2023-02-19T06:43:57.583Z,19.30
2023-02-19T06:46:26.668Z,19.41
2023-02-19T06:48:53.299Z,19.36
2023-02-19T06:51:22.753Z,19.43
2023-02-19T06:53:52.086Z,19.42
2023-02-19T06:56:38.398Z,19.38
2023-02-19T06:59:07.007Z,19.42
2023-02-19T07:01:36.624Z,19.44
2023-02-19T07:04:03.672Z,19.47
2023-02-19T07:06:35.814Z,19.43
2023-02-19T07:09:05.641Z,19.43
2023-02-19T07:11:36.560Z,19.41
2023-02-19T07:14:04.278Z,19.42
2023-02-19T07:16:31.181Z,19.42
2023-02-19T07:18:58.434Z,19.42
2023-02-19T07:21:27.216Z,19.43
2023-02-19T07:23:53.945Z,19.43
2023-02-19T07:26:22.989Z,19.41
2023-02-19T07:28:52.809Z,19.40
2023-02-19T07:31:20.561Z,18.98
2023-02-19T07:33:50.046Z,17.95
2023-02-19T07:36:20.754Z,17.43
2023-02-19T07:38:49.116Z,17.03
2023-02-19T07:41:17.972Z,17.09
2023-02-19T07:43:47.304Z,17.05
2023-02-19T07:46:14.600Z,16.97
2023-02-19T07:48:42.595Z,16.96
2023-02-19T07:51:16.620Z,17.10
2023-02-19T07:53:45.430Z,17.22
2023-02-19T07:56:15.238Z,17.22
2023-02-19T07:58:48.754Z,17.10
2023-02-19T08:01:41.484Z,17.61
2023-02-19T08:04:10.888Z,18.04
2023-02-19T08:06:39.900Z,18.28
2023-02-19T08:09:08.700Z,18.43
2023-02-19T08:11:53.730Z,18.57
2023-02-19T08:14:20.370Z,18.68
2023-02-19T08:16:53.395Z,18.80
2023-02-19T08:19:22.362Z,18.95
2023-02-19T08:21:51.354Z,19.02
2023-02-19T08:24:20.179Z,19.22
2023-02-19T08:26:49.143Z,19.46
2023-02-19T08:29:15.730Z,19.44
2023-02-19T08:31:42.844Z,19.44
2023-02-19T08:34:09.816Z,19.48
2023-02-19T08:36:36.750Z,19.57
2023-02-19T08:39:06.046Z,19.65
2023-02-19T08:41:33.187Z,19.71
2023-02-19T08:44:03.035Z,19.79
2023-02-19T08:46:34.352Z,19.84
2023-02-19T08:49:03.438Z,19.93
2023-02-19T08:51:33.860Z,20.01
2023-02-19T08:54:03.458Z,20.08
2023-02-19T08:56:30.738Z,20.14
2023-02-19T08:58:57.574Z,20.19
2023-02-19T09:01:24.294Z,20.22
2023-02-19T09:03:55.727Z,20.25
2023-02-19T09:06:22.797Z,20.27
2023-02-19T09:08:49.551Z,20.30
2023-02-19T09:11:18.420Z,20.35
2023-02-19T09:13:47.452Z,20.38
2023-02-19T09:16:16.343Z,20.41
2023-02-19T09:18:43.200Z,20.44
2023-02-19T09:21:10.195Z,20.41
2023-02-19T09:23:40.212Z,20.46
2023-02-19T09:26:11.422Z,20.49
2023-02-19T09:28:41.517Z,20.55
2023-02-19T09:31:12.586Z,20.56
2023-02-19T09:33:46.078Z,20.60
2023-02-19T09:36:13.427Z,20.61
2023-02-19T09:38:40.665Z,20.68
2023-02-19T09:41:15.707Z,20.73
2023-02-19T09:43:45.361Z,20.69
2023-02-19T09:46:29.243Z,20.75
2023-02-19T09:48:59.390Z,20.78
2023-02-19T09:51:26.177Z,20.81
2023-02-19T09:53:55.220Z,20.74
2023-02-19T09:56:26.754Z,20.70
2023-02-19T09:58:55.418Z,20.86
2023-02-19T10:01:24.298Z,20.88
2023-02-19T10:03:50.960Z,20.87
2023-02-19T10:06:25.186Z,20.86
2023-02-19T10:08:56.704Z,20.84
2023-02-19T10:11:26.289Z,20.82
2023-02-19T10:14:05.484Z,20.84
2023-02-19T10:16:34.473Z,20.85
2023-02-19T10:19:01.170Z,20.84
2023-02-19T10:21:28.077Z,20.79
2023-02-19T10:24:02.994Z,20.87
2023-02-19T10:26:36.855Z,20.90
2023-02-19T10:29:04.382Z,20.92
2023-02-19T10:31:31.537Z,20.93
2023-02-19T10:34:00.439Z,20.88
2023-02-19T10:36:35.008Z,20.87
2023-02-19T10:39:06.247Z,20.92
2023-02-19T10:41:32.790Z,20.97
2023-02-19T10:44:16.592Z,20.96
2023-02-19T10:46:48.187Z,20.98
2023-02-19T10:49:38.789Z,20.97
2023-02-19T10:52:23.621Z,20.98
2023-02-19T10:54:56.282Z,20.98
2023-02-19T10:57:32.802Z,20.98
2023-02-19T11:00:19.379Z,21.02
2023-02-19T11:02:46.039Z,21.03
2023-02-19T11:05:14.473Z,21.03
2023-02-19T11:07:51.195Z,21.01
2023-02-19T11:10:28.580Z,21.00
2023-02-19T11:12:59.931Z,20.96
2023-02-19T11:15:34.321Z,20.99
2023-02-19T11:18:13.099Z,20.92
2023-02-19T11:20:49.308Z,20.99
2023-02-19T11:23:22.263Z,21.00
2023-02-19T11:25:49.682Z,20.97
2023-02-19T11:28:35.679Z,20.97
2023-02-19T11:31:22.870Z,20.97
2023-02-19T11:33:49.465Z,20.95
2023-02-19T11:36:16.122Z,20.94
2023-02-19T11:38:45.436Z,20.91
2023-02-19T11:41:19.902Z,20.88
2023-02-19T11:43:49.911Z,20.82
2023-02-19T11:46:23.070Z,20.85
2023-02-19T11:49:11.074Z,20.71
2023-02-19T11:52:02.545Z,20.81
2023-02-19T11:54:48.804Z,20.76
2023-02-19T11:57:40.210Z,20.75
2023-02-19T12:00:21.005Z,20.73
2023-02-19T12:03:20.146Z,20.70
2023-02-19T12:06:02.074Z,20.68
2023-02-19T12:08:34.777Z,20.67
2023-02-19T12:11:20.132Z,20.65
2023-02-19T12:14:05.646Z,20.63
2023-02-19T12:16:43.839Z,20.62
2023-02-19T12:19:29.263Z,20.60
2023-02-19T12:21:55.841Z,20.59
2023-02-19T12:24:37.383Z,20.56
2023-02-19T12:27:22.504Z,20.56
2023-02-19T12:30:19.903Z,20.55
2023-02-19T12:33:04.792Z,20.53
2023-02-19T12:35:54.785Z,20.40
2023-02-19T12:38:35.199Z,20.49
2023-02-19T12:41:11.825Z,20.50
2023-02-19T12:43:40.764Z,20.48
2023-02-19T12:46:20.223Z,20.49
2023-02-19T12:48:53.478Z,20.45
2023-02-19T12:51:44.346Z,20.44
2023-02-19T12:54:15.128Z,20.42
2023-02-19T12:57:07.905Z,20.43
2023-02-19T12:59:44.018Z,20.41
2023-02-19T13:02:28.033Z,20.41
2023-02-19T13:05:19.489Z,20.40
2023-02-19T13:08:04.390Z,20.40
2023-02-19T13:10:52.803Z,20.40
2023-02-19T13:13:22.024Z,20.39
2023-02-19T13:15:54.039Z,20.40
2023-02-19T13:18:26.277Z,20.40
2023-02-19T13:20:55.897Z,20.38
2023-02-19T13:23:46.642Z,20.39
2023-02-19T13:26:44.154Z,20.37
2023-02-19T13:29:35.094Z,20.38
2023-02-19T13:32:40.525Z,20.37
2023-02-19T13:35:18.117Z,20.39
2023-02-19T13:37:46.915Z,20.37
2023-02-19T13:40:39.908Z,20.37
2023-02-19T13:43:08.029Z,20.38
2023-02-19T13:45:41.979Z,20.36
2023-02-19T13:48:14.410Z,20.36
2023-02-19T13:50:41.389Z,20.35
2023-02-19T13:53:54.126Z,20.36
2023-02-19T13:56:30.140Z,20.34
2023-02-19T13:59:36.053Z,20.35
2023-02-19T14:02:02.733Z,20.30
2023-02-19T14:04:32.401Z,20.34
2023-02-19T14:07:05.144Z,20.34
2023-02-19T14:09:34.492Z,20.34
2023-02-19T14:12:10.511Z,20.36
2023-02-19T14:15:07.025Z,20.36
2023-02-19T14:17:39.988Z,20.35
2023-02-19T14:20:09.763Z,20.36
2023-02-19T14:22:57.472Z,20.37
2023-02-19T14:25:35.886Z,20.37
2023-02-19T14:28:21.078Z,20.37
2023-02-19T14:30:55.119Z,20.39
2023-02-19T14:33:29.105Z,20.36
2023-02-19T14:36:34.539Z,20.38
2023-02-19T14:39:08.089Z,20.36
2023-02-19T14:41:38.726Z,20.38
2023-02-19T14:44:06.085Z,20.39
2023-02-19T14:46:42.110Z,20.39
2023-02-19T14:49:36.483Z,20.40
2023-02-19T14:52:09.972Z,20.41
2023-02-19T14:54:50.289Z,20.39
2023-02-19T14:57:27.419Z,20.40
2023-02-19T14:59:58.876Z,20.38
2023-02-19T15:02:28.709Z,20.39
2023-02-19T15:04:55.557Z,20.40
2023-02-19T15:07:30.289Z,20.39
2023-02-19T15:10:05.567Z,20.38
2023-02-19T15:12:39.937Z,20.38
2023-02-19T15:15:07.289Z,20.37
2023-02-19T15:17:39.797Z,20.37
2023-02-19T15:20:11.764Z,20.39
2023-02-19T15:22:39.894Z,20.25
2023-02-19T15:25:08.686Z,20.37
2023-02-19T15:27:37.605Z,20.32
2023-02-19T15:30:04.448Z,20.34
2023-02-19T15:32:33.209Z,20.34
2023-02-19T15:35:01.581Z,20.29
2023-02-19T15:37:32.856Z,20.32
2023-02-19T15:40:01.163Z,20.32
2023-02-19T15:42:32.012Z,20.32
2023-02-19T15:45:02.723Z,20.35
2023-02-19T15:47:33.273Z,20.35
2023-02-19T15:50:12.581Z,20.31
2023-02-19T15:53:10.387Z,20.36
2023-02-19T15:55:41.366Z,20.32
2023-02-19T15:58:20.347Z,20.34
2023-02-19T16:00:49.823Z,20.36
2023-02-19T16:03:25.696Z,20.30
2023-02-19T16:06:01.622Z,20.32
2023-02-19T16:08:38.962Z,20.35
2023-02-19T16:11:29.426Z,20.30
2023-02-19T16:14:19.279Z,20.32
2023-02-19T16:16:46.797Z,20.32
2023-02-19T16:19:13.460Z,20.35
2023-02-19T16:21:44.145Z,20.32
2023-02-19T16:24:16.873Z,20.32
2023-02-19T16:26:46.707Z,20.32
2023-02-19T16:29:32.960Z,20.34
2023-02-19T16:32:01.626Z,20.31
2023-02-19T16:34:39.527Z,20.34
2023-02-19T16:37:30.295Z,20.29
2023-02-19T16:40:37.827Z,20.32
2023-02-19T16:43:04.422Z,20.34
2023-02-19T16:45:33.537Z,20.29
2023-02-19T16:48:04.880Z,20.34
2023-02-19T16:50:36.317Z,20.32
2023-02-19T16:53:05.793Z,20.35
2023-02-19T16:55:34.625Z,20.35
2023-02-19T16:58:01.361Z,20.34
2023-02-19T17:00:33.298Z,20.31
2023-02-19T17:03:09.011Z,20.32
2023-02-19T17:05:38.141Z,20.32
2023-02-19T17:08:26.553Z,20.32
2023-02-19T17:10:55.836Z,20.32
2023-02-19T17:13:25.380Z,20.30
2023-02-19T17:15:52.012Z,20.29
2023-02-19T17:18:21.575Z,20.32
2023-02-19T17:20:59.696Z,20.31
2023-02-19T17:23:26.473Z,20.32
2023-02-19T17:25:55.359Z,20.33
2023-02-19T17:28:24.361Z,20.32
2023-02-19T17:30:53.286Z,20.23
2023-02-19T17:33:20.010Z,20.31
2023-02-19T17:35:49.013Z,20.30
2023-02-19T17:38:18.595Z,20.32
2023-02-19T17:40:47.408Z,20.29
2023-02-19T17:43:14.720Z,20.32
2023-02-19T17:45:41.621Z,20.33
2023-02-19T17:48:15.049Z,20.29
2023-02-19T17:50:44.143Z,20.28
2023-02-19T17:53:12.958Z,20.27
2023-02-19T17:55:39.685Z,20.11
2023-02-19T17:58:06.384Z,20.25
2023-02-19T18:00:36.654Z,20.24
2023-02-19T18:03:03.858Z,20.22
2023-02-19T18:05:32.911Z,20.25
2023-02-19T18:07:59.525Z,20.23
2023-02-19T18:10:30.999Z,20.22
2023-02-19T18:13:00.413Z,20.18
2023-02-19T18:15:27.010Z,20.12
2023-02-19T18:17:54.246Z,20.17
2023-02-19T18:20:28.104Z,20.17
2023-02-19T18:22:55.268Z,20.19
2023-02-19T18:25:22.090Z,20.20
2023-02-19T18:27:48.862Z,20.15
2023-02-19T18:30:18.450Z,20.18
2023-02-19T18:32:48.576Z,20.18
2023-02-19T18:35:18.352Z,20.15
2023-02-19T18:37:45.093Z,20.14
2023-02-19T18:40:12.152Z,20.17
2023-02-19T18:42:41.477Z,20.12
2023-02-19T18:45:08.270Z,20.16
2023-02-19T18:47:37.073Z,20.12
2023-02-19T18:50:08.373Z,20.16
2023-02-19T18:52:34.970Z,20.14
2023-02-19T18:55:03.821Z,20.13
2023-02-19T18:57:32.586Z,20.14
2023-02-19T19:00:01.488Z,20.15
2023-02-19T19:02:33.745Z,20.15
2023-02-19T19:05:06.350Z,20.15
2023-02-19T19:07:33.018Z,20.20
2023-02-19T19:10:01.904Z,20.16
2023-02-19T19:12:30.790Z,20.15
2023-02-19T19:15:00.433Z,20.22
2023-02-19T19:17:27.153Z,20.20
2023-02-19T19:19:56.484Z,20.21
2023-02-19T19:22:25.263Z,20.17
2023-02-19T19:24:54.319Z,20.17
2023-02-19T19:27:21.064Z,20.16
2023-02-19T19:29:50.141Z,20.16
2023-02-19T19:32:19.220Z,20.18
2023-02-19T19:34:48.286Z,20.19
2023-02-19T19:37:19.595Z,20.16
2023-02-19T19:39:46.195Z,20.21
2023-02-19T19:42:12.939Z,20.19
2023-02-19T19:44:39.836Z,20.21
2023-02-19T19:47:06.475Z,20.21
2023-02-19T19:49:35.228Z,20.21
2023-02-19T19:52:05.054Z,20.19
2023-02-19T19:54:34.055Z,20.20
2023-02-19T19:57:03.475Z,20.22
2023-02-19T19:59:32.424Z,20.18
2023-02-19T20:01:59.278Z,20.19
2023-02-19T20:04:28.083Z,20.21
2023-02-19T20:06:56.914Z,20.22
2023-02-19T20:09:29.973Z,20.21
2023-02-19T20:11:56.800Z,20.22
2023-02-19T20:14:23.653Z,20.22
2023-02-19T20:16:50.686Z,20.21
2023-02-19T20:19:20.620Z,20.24
2023-02-19T20:21:53.749Z,20.21
2023-02-19T20:24:26.058Z,20.21
2023-02-19T20:26:58.679Z,20.23
2023-02-19T20:29:27.916Z,20.23
2023-02-19T20:31:57.448Z,20.23
2023-02-19T20:34:24.208Z,20.26
2023-02-19T20:36:53.460Z,20.25
2023-02-19T20:39:28.650Z,20.27
2023-02-19T20:41:57.758Z,20.25
2023-02-19T20:44:27.232Z,20.26
2023-02-19T20:46:54.012Z,20.27
2023-02-19T20:49:22.507Z,20.27
2023-02-19T20:52:02.396Z,20.26
2023-02-19T20:54:30.725Z,20.27
2023-02-19T20:56:59.922Z,20.24
2023-02-19T20:59:30.943Z,20.27
2023-02-19T21:01:58.580Z,20.27
2023-02-19T21:04:27.699Z,20.24
2023-02-19T21:06:54.440Z,20.29
2023-02-19T21:09:21.701Z,20.28
2023-02-19T21:11:48.708Z,20.31
2023-02-19T21:14:15.496Z,20.27
2023-02-19T21:16:44.346Z,20.25
2023-02-19T21:19:13.207Z,20.29
2023-02-19T21:21:42.087Z,20.26
2023-02-19T21:24:13.073Z,20.24
2023-02-19T21:26:40.197Z,20.23
2023-02-19T21:29:10.654Z,20.21
2023-02-19T21:31:44.585Z,20.09
2023-02-19T21:34:13.103Z,20.22
2023-02-19T21:36:39.849Z,20.24
2023-02-19T21:39:07.318Z,20.21
2023-02-19T21:41:36.118Z,20.22
2023-02-19T21:44:02.854Z,20.23
2023-02-19T21:46:29.507Z,20.18
2023-02-19T21:48:56.430Z,20.20
2023-02-19T21:51:31.815Z,20.17
2023-02-19T21:53:58.828Z,20.15
2023-02-19T21:56:30.185Z,20.16
2023-02-19T21:58:59.036Z,20.16
2023-02-19T22:01:31.689Z,20.14
2023-02-19T22:04:01.032Z,20.13
2023-02-19T22:06:30.887Z,20.13
2023-02-19T22:08:58.262Z,20.11
2023-02-19T22:11:25.013Z,20.09
2023-02-19T22:13:51.751Z,20.10
2023-02-19T22:16:20.768Z,20.07
2023-02-19T22:18:51.398Z,20.08
2023-02-19T22:21:20.806Z,20.09
2023-02-19T22:23:50.066Z,20.10
2023-02-19T22:26:18.862Z,20.11
2023-02-19T22:28:47.708Z,20.09
2023-02-19T22:31:18.238Z,20.18
2023-02-19T22:33:49.602Z,20.34
2023-02-19T22:36:16.849Z,20.22
2023-02-19T22:38:43.540Z,20.23
2023-02-19T22:41:12.349Z,20.16
2023-02-19T22:43:43.774Z,20.12
2023-02-19T22:46:14.828Z,20.19
2023-02-19T22:48:46.477Z,20.13
2023-02-19T22:51:14.906Z,20.11
2023-02-19T22:53:44.789Z,20.10
2023-02-19T22:56:18.130Z,20.10
2023-02-19T22:58:49.499Z,20.08
2023-02-19T23:01:16.225Z,20.08
2023-02-19T23:03:52.570Z,20.09
2023-02-19T23:06:25.006Z,20.09
2023-02-19T23:08:52.598Z,20.09
2023-02-19T23:11:29.702Z,20.11
2023-02-19T23:13:59.219Z,20.09
2023-02-19T23:16:28.476Z,20.09
2023-02-19T23:18:55.258Z,20.08
2023-02-19T23:21:22.160Z,20.08
2023-02-19T23:23:48.856Z,20.09
2023-02-19T23:26:15.990Z,20.08
2023-02-19T23:28:42.846Z,20.07
2023-02-19T23:31:11.729Z,20.06
2023-02-19T23:33:40.888Z,20.08
2023-02-19T23:36:08.197Z,20.09
2023-02-19T23:38:37.221Z,20.08
2023-02-19T23:41:04.118Z,20.07
2023-02-19T23:43:33.043Z,20.07
2023-02-19T23:46:01.897Z,20.06
2023-02-19T23:48:30.983Z,20.07
2023-02-19T23:50:57.617Z,20.07
2023-02-19T23:53:27.091Z,20.06
2023-02-19T23:55:53.710Z,20.04
2023-02-19T23:58:22.536Z,20.06
